Time;durP1;ratioP1;P1;durP2;ratioP2;P2;SDS_P1;SDS_P2;PMS_P1;PMS_P2;Temp;Humidity;BMP_temperature;BMP_pressure;BME280_temperature;BME280_humidity;BME280_pressure;Samples;Min_cycle;Max_cycle;Signal;HPM_P1;HPM_P2
2023/12/25 00:01:26;;;;;;;13.82;2.42;;;;;;;;;;5039298;28;20131;-67
2023/12/25 00:03:51;;;;;;;9.98;2.88;;;;;;;;;;5040246;28;20144;-67
2023/12/25 00:06:18;;;;;;;13.20;3.00;;;;;;;;;;5036143;28;20517;-67
2023/12/25 00:08:44;;;;;;;9.00;2.15;;;;;;;;;;5037493;28;20045;-67
2023/12/25 00:11:10;;;;;;;8.65;2.22;;;;;;;;;;5035698;28;20048;-67
2023/12/25 00:13:36;;;;;;;8.68;2.13;;;;;;;;;;5039513;28;20489;-67
2023/12/25 00:16:02;;;;;;;10.65;2.60;;;;;;;;;;5038910;28;20041;-67
2023/12/25 00:18:28;;;;;;;12.18;2.35;;;;;;;;;;5042335;28;20205;-67
2023/12/25 00:20:54;;;;;;;11.48;2.08;;;;;;;;;;5037696;28;20029;-67
2023/12/25 00:23:20;;;;;;;5.85;2.45;;;;;;;;;;5038543;28;20045;-66
2023/12/25 00:25:46;;;;;;;7.13;2.38;;;;;;;;;;5034859;28;20094;-67
2023/12/25 00:28:13;;;;;;;10.63;2.20;;;;;;;;;;5039166;28;20045;-67
2023/12/25 00:30:38;;;;;;;13.68;3.00;;;;;;;;;;5036147;28;20149;-67
2023/12/25 00:33:05;;;;;;;7.97;2.17;;;;;;;;;;5040658;28;20060;-67
2023/12/25 00:35:30;;;;;;;10.23;2.60;;;;;;;;;;5036443;28;20045;-67
2023/12/25 00:37:56;;;;;;;11.77;2.75;;;;;;;;;;5041208;28;20038;-67
2023/12/25 00:40:22;;;;;;;8.35;2.63;;;;;;;;;;5039353;28;20405;-67
2023/12/25 00:42:48;;;;;;;8.30;2.42;;;;;;;;;;5034985;28;20057;-67
2023/12/25 00:45:14;;;;;;;6.07;1.88;;;;;;;;;;5040076;28;20045;-66
2023/12/25 00:47:40;;;;;;;10.20;2.22;;;;;;;;;;5041639;28;20044;-68
2023/12/25 00:50:06;;;;;;;9.98;2.42;;;;;;;;;;5038193;28;20409;-68
2023/12/25 00:52:32;;;;;;;8.00;1.95;;;;;;;;;;5033537;28;20164;-67
2023/12/25 00:54:58;;;;;;;6.57;1.60;;;;;;;;;;5037295;28;20157;-67
2023/12/25 00:57:26;;;;;;;7.28;1.75;;;;;;;;;;5041363;28;20131;-67
2023/12/25 00:59:52;;;;;;;11.10;2.65;;;;;;;;;;5040098;28;20443;-67
2023/12/25 01:02:18;;;;;;;6.22;1.90;;;;;;;;;;5040446;28;20050;-67
2023/12/25 01:04:44;;;;;;;7.10;1.98;;;;;;;;;;5039893;28;20037;-67
2023/12/25 01:07:10;;;;;;;9.48;1.88;;;;;;;;;;5040793;28;20040;-67
2023/12/25 01:09:36;;;;;;;11.98;1.70;;;;;;;;;;5039678;28;20424;-67
2023/12/25 01:12:02;;;;;;;11.73;1.73;;;;;;;;;;5042673;28;20069;-67
2023/12/25 01:14:28;;;;;;;7.72;1.90;;;;;;;;;;5042026;28;20049;-67
2023/12/25 01:16:54;;;;;;;12.68;2.45;;;;;;;;;;5040782;28;20106;-67
2023/12/25 01:19:20;;;;;;;6.32;2.15;;;;;;;;;;5043363;28;20548;-67
2023/12/25 01:21:46;;;;;;;5.82;2.00;;;;;;;;;;5040027;28;20045;-67
2023/12/25 01:24:12;;;;;;;8.00;2.13;;;;;;;;;;5042735;28;20492;-67
2023/12/25 01:26:38;;;;;;;5.10;1.48;;;;;;;;;;5039322;28;20077;-67
2023/12/25 01:29:04;;;;;;;6.55;1.67;;;;;;;;;;5040920;28;20788;-67
2023/12/25 01:31:30;;;;;;;7.13;1.95;;;;;;;;;;5039400;28;20044;-67
2023/12/25 01:33:56;;;;;;;4.13;1.60;;;;;;;;;;5040397;28;20539;-67
2023/12/25 01:36:22;;;;;;;5.00;1.40;;;;;;;;;;5042084;28;20124;-68
2023/12/25 01:38:48;;;;;;;7.10;1.70;;;;;;;;;;5041363;28;20804;-67
2023/12/25 01:41:14;;;;;;;6.70;1.58;;;;;;;;;;5042396;28;20041;-67
2023/12/25 01:43:40;;;;;;;9.95;2.20;;;;;;;;;;5041728;28;20107;-67
2023/12/25 01:46:06;;;;;;;2.83;1.08;;;;;;;;;;5042358;28;20073;-67
2023/12/25 01:48:33;;;;;;;7.00;1.73;;;;;;;;;;5041277;28;20142;-67
2023/12/25 01:51:00;;;;;;;6.55;1.77;;;;;;;;;;5040200;28;20080;-67
2023/12/25 01:53:26;;;;;;;8.73;2.20;;;;;;;;;;5041958;28;20041;-67
2023/12/25 01:55:52;;;;;;;9.85;2.30;;;;;;;;;;5041120;28;20485;-67
2023/12/25 01:58:18;;;;;;;7.43;1.77;;;;;;;;;;5041551;28;20056;-67
2023/12/25 02:00:44;;;;;;;4.50;1.45;;;;;;;;;;5041963;28;20048;-67
2023/12/25 02:03:10;;;;;;;8.27;1.63;;;;;;;;;;5042528;28;20044;-67
2023/12/25 02:05:37;;;;;;;11.60;2.38;;;;;;;;;;5043887;28;20048;-67
2023/12/25 02:08:04;;;;;;;4.47;1.60;;;;;;;;;;5045803;28;20041;-67
2023/12/25 02:10:30;;;;;;;5.40;1.63;;;;;;;;;;5044570;28;20041;-67
2023/12/25 02:12:59;;;;;;;5.00;1.58;;;;;;;;;;5044950;28;20045;-67
2023/12/25 02:15:26;;;;;;;2.78;1.58;;;;;;;;;;5046650;28;20091;-67
2023/12/25 02:17:52;;;;;;;8.35;1.65;;;;;;;;;;5046067;28;20033;-67
2023/12/25 02:20:19;;;;;;;10.43;2.10;;;;;;;;;;5044444;28;20039;-67
2023/12/25 02:22:45;;;;;;;5.07;2.25;;;;;;;;;;5044885;28;20037;-67
2023/12/25 02:25:11;;;;;;;6.95;1.77;;;;;;;;;;5043000;28;20040;-67
2023/12/25 02:27:37;;;;;;;11.65;2.15;;;;;;;;;;5042443;28;20037;-67
2023/12/25 02:30:03;;;;;;;5.70;1.40;;;;;;;;;;5075828;28;20048;-67
2023/12/25 02:32:29;;;;;;;5.00;1.48;;;;;;;;;;5045074;28;20048;-67
2023/12/25 02:34:55;;;;;;;7.50;1.88;;;;;;;;;;5044717;28;20037;-67
2023/12/25 02:37:21;;;;;;;11.30;2.08;;;;;;;;;;5044437;28;20713;-67
2023/12/25 02:39:47;;;;;;;6.70;1.80;;;;;;;;;;5042939;28;20055;-67
2023/12/25 02:42:13;;;;;;;7.97;2.13;;;;;;;;;;5045188;28;20048;-67
2023/12/25 02:44:39;;;;;;;13.18;2.55;;;;;;;;;;5042734;28;20048;-67
2023/12/25 02:47:05;;;;;;;9.23;2.28;;;;;;;;;;5041565;28;20075;-67
2023/12/25 02:49:31;;;;;;;12.38;2.10;;;;;;;;;;5043741;28;20063;-67
2023/12/25 02:51:57;;;;;;;7.18;2.05;;;;;;;;;;5042770;28;20053;-67
2023/12/25 02:54:24;;;;;;;6.97;1.90;;;;;;;;;;5043143;28;20201;-67
2023/12/25 02:56:49;;;;;;;4.60;1.77;;;;;;;;;;5044886;28;20794;-67
2023/12/25 02:59:15;;;;;;;11.15;2.40;;;;;;;;;;5045564;28;20033;-67
2023/12/25 03:01:41;;;;;;;6.07;1.90;;;;;;;;;;5043542;28;20045;-67
2023/12/25 03:04:07;;;;;;;10.23;2.03;;;;;;;;;;5044404;28;20138;-67
2023/12/25 03:06:33;;;;;;;6.43;1.85;;;;;;;;;;5043922;28;20489;-67
2023/12/25 03:08:59;;;;;;;8.15;2.08;;;;;;;;;;5044259;28;20045;-67
2023/12/25 03:11:25;;;;;;;6.88;1.75;;;;;;;;;;5045003;28;20033;-67
2023/12/25 03:13:51;;;;;;;9.52;2.50;;;;;;;;;;5044486;28;20390;-67
2023/12/25 03:16:19;;;;;;;7.13;2.22;;;;;;;;;;5042182;28;20088;-67
2023/12/25 03:18:45;;;;;;;7.72;1.63;;;;;;;;;;5042491;28;20413;-67
2023/12/25 03:21:11;;;;;;;4.70;1.75;;;;;;;;;;5044821;28;20509;-67
2023/12/25 03:23:37;;;;;;;10.82;1.90;;;;;;;;;;5042965;28;20044;-67
2023/12/25 03:26:03;;;;;;;15.23;2.75;;;;;;;;;;5074745;28;20080;-67
2023/12/25 03:28:29;;;;;;;9.50;1.50;;;;;;;;;;5041925;28;20059;-67
2023/12/25 03:30:55;;;;;;;7.05;1.95;;;;;;;;;;5044493;28;20041;-67
2023/12/25 03:33:21;;;;;;;9.68;1.65;;;;;;;;;;5046509;28;20049;-67
2023/12/25 03:35:47;;;;;;;4.57;1.08;;;;;;;;;;5046120;28;20033;-67
2023/12/25 03:38:13;;;;;;;3.85;1.25;;;;;;;;;;5046874;28;20052;-67
2023/12/25 03:40:40;;;;;;;6.15;1.92;;;;;;;;;;5058759;28;20124;-67
2023/12/25 03:43:06;;;;;;;3.83;1.50;;;;;;;;;;5043917;28;20040;-67
2023/12/25 03:45:32;;;;;;;4.72;1.70;;;;;;;;;;5042512;28;20465;-67
2023/12/25 03:47:58;;;;;;;5.57;2.15;;;;;;;;;;5045099;28;20124;-67
2023/12/25 03:50:24;;;;;;;7.35;1.95;;;;;;;;;;5044385;28;20183;-67
2023/12/25 03:52:50;;;;;;;6.40;1.80;;;;;;;;;;5040889;28;20102;-67
2023/12/25 03:55:16;;;;;;;11.48;2.03;;;;;;;;;;5044456;28;20392;-67
2023/12/25 03:57:42;;;;;;;12.75;1.92;;;;;;;;;;5040112;28;20045;-67
2023/12/25 04:00:08;;;;;;;5.60;1.48;;;;;;;;;;5044208;28;20037;-67
2023/12/25 04:02:34;;;;;;;6.45;1.95;;;;;;;;;;5042236;28;20037;-67
2023/12/25 04:05:00;;;;;;;7.75;1.98;;;;;;;;;;5042929;28;20686;-67
2023/12/25 04:07:26;;;;;;;5.72;1.35;;;;;;;;;;5042579;28;20084;-67
2023/12/25 04:09:52;;;;;;;8.00;1.60;;;;;;;;;;5042756;28;20494;-67
2023/12/25 04:12:18;;;;;;;6.32;1.70;;;;;;;;;;5043559;28;20045;-67
2023/12/25 04:14:44;;;;;;;6.97;1.85;;;;;;;;;;5043662;28;20045;-67
2023/12/25 04:17:10;;;;;;;5.55;1.88;;;;;;;;;;5042467;28;20053;-67
2023/12/25 04:19:36;;;;;;;8.20;2.20;;;;;;;;;;5041527;28;20048;-67
2023/12/25 04:22:02;;;;;;;9.40;2.35;;;;;;;;;;5041561;28;20546;-67
2023/12/25 04:24:28;;;;;;;5.68;1.77;;;;;;;;;;5043165;28;20041;-67
2023/12/25 04:26:54;;;;;;;7.65;2.30;;;;;;;;;;5073246;28;20672;-67
2023/12/25 04:29:20;;;;;;;9.02;2.08;;;;;;;;;;5041654;28;20064;-67
2023/12/25 04:31:46;;;;;;;4.97;1.85;;;;;;;;;;5042983;28;20048;-67
2023/12/25 04:34:12;;;;;;;13.50;2.47;;;;;;;;;;5041094;28;20041;-67
2023/12/25 04:36:38;;;;;;;17.75;3.13;;;;;;;;;;5041020;28;20393;-67
2023/12/25 04:39:05;;;;;;;7.00;2.15;;;;;;;;;;5042464;28;20135;-67
2023/12/25 04:41:31;;;;;;;8.32;2.42;;;;;;;;;;5042744;28;20049;-67
2023/12/25 04:43:57;;;;;;;8.63;2.08;;;;;;;;;;5043313;28;20111;-67
2023/12/25 04:46:23;;;;;;;4.85;1.70;;;;;;;;;;5043824;28;20048;-67
2023/12/25 04:48:49;;;;;;;13.20;2.70;;;;;;;;;;5040570;28;21135;-67
2023/12/25 04:51:15;;;;;;;8.02;1.83;;;;;;;;;;5044053;28;20053;-66
2023/12/25 04:53:41;;;;;;;9.18;1.95;;;;;;;;;;5041511;28;20037;-66
2023/12/25 04:56:11;;;;;;;6.35;1.65;;;;;;;;;;5042552;28;20041;-67
2023/12/25 04:58:37;;;;;;;8.32;1.60;;;;;;;;;;5040063;28;20044;-67
2023/12/25 05:01:04;;;;;;;4.85;1.65;;;;;;;;;;5042533;28;20489;-67
2023/12/25 05:03:30;;;;;;;11.60;2.25;;;;;;;;;;5041472;28;20402;-67
2023/12/25 05:05:56;;;;;;;7.57;1.63;;;;;;;;;;5041636;28;20041;-67
2023/12/25 05:08:22;;;;;;;7.30;1.58;;;;;;;;;;5073708;28;20674;-67
2023/12/25 05:10:49;;;;;;;8.57;1.50;;;;;;;;;;5042296;28;20124;-67
2023/12/25 05:13:15;;;;;;;6.32;1.77;;;;;;;;;;5042557;28;20516;-67
2023/12/25 05:15:41;;;;;;;4.53;1.73;;;;;;;;;;5041496;28;20041;-67
2023/12/25 05:18:07;;;;;;;5.00;1.50;;;;;;;;;;5043722;28;20052;-67
2023/12/25 05:20:33;;;;;;;8.65;1.98;;;;;;;;;;5043252;28;20036;-67
2023/12/25 05:22:59;;;;;;;6.03;2.00;;;;;;;;;;5040725;28;20141;-67
2023/12/25 05:25:25;;;;;;;11.88;3.20;;;;;;;;;;5040778;28;20093;-67
2023/12/25 05:27:51;;;;;;;6.68;1.67;;;;;;;;;;5039694;28;20484;-67
2023/12/25 05:30:17;;;;;;;5.20;1.48;;;;;;;;;;5039895;28;20045;-67
2023/12/25 05:32:43;;;;;;;5.38;1.67;;;;;;;;;;5041633;28;20048;-67
2023/12/25 05:35:09;;;;;;;6.78;1.80;;;;;;;;;;5042595;28;20068;-67
2023/12/25 05:37:35;;;;;;;4.32;1.38;;;;;;;;;;5041966;28;20151;-67
2023/12/25 05:40:02;;;;;;;9.77;2.10;;;;;;;;;;5045787;28;20064;-67
2023/12/25 05:42:28;;;;;;;5.50;1.77;;;;;;;;;;5044509;28;20041;-67
2023/12/25 05:44:54;;;;;;;5.32;1.80;;;;;;;;;;5044675;28;20446;-67
2023/12/25 05:47:20;;;;;;;2.40;1.10;;;;;;;;;;5046453;28;20119;-66
2023/12/25 05:49:46;;;;;;;4.85;0.93;;;;;;;;;;5046145;28;20057;-66
2023/12/25 05:52:12;;;;;;;4.07;1.48;;;;;;;;;;5044699;28;20099;-66
2023/12/25 05:54:38;;;;;;;7.35;1.75;;;;;;;;;;5044348;28;20037;-66
2023/12/25 05:57:04;;;;;;;4.70;0.98;;;;;;;;;;5043998;28;20272;-66
2023/12/25 05:59:30;;;;;;;4.38;1.45;;;;;;;;;;5045886;28;20067;-67
2023/12/25 06:01:56;;;;;;;6.90;1.55;;;;;;;;;;5046293;28;20043;-67
2023/12/25 06:04:22;;;;;;;5.60;1.48;;;;;;;;;;5045366;28;20084;-66
2023/12/25 06:06:48;;;;;;;5.63;0.98;;;;;;;;;;5043310;28;20413;-66
2023/12/25 06:09:14;;;;;;;8.80;2.08;;;;;;;;;;5044822;28;20076;-66
2023/12/25 06:11:40;;;;;;;8.75;1.55;;;;;;;;;;5044080;28;20111;-66
2023/12/25 06:14:07;;;;;;;2.72;1.13;;;;;;;;;;5045273;28;20041;-66
2023/12/25 06:16:33;;;;;;;12.85;1.70;;;;;;;;;;5045875;28;20041;-66
2023/12/25 06:18:59;;;;;;;3.95;1.55;;;;;;;;;;5047204;28;20088;-66
2023/12/25 06:21:25;;;;;;;4.25;1.40;;;;;;;;;;5046608;28;20500;-66
2023/12/25 06:23:52;;;;;;;3.65;1.27;;;;;;;;;;5046332;28;20132;-66
2023/12/25 06:26:18;;;;;;;3.53;1.10;;;;;;;;;;5046469;28;20049;-66
2023/12/25 06:28:44;;;;;;;4.70;1.65;;;;;;;;;;5046862;28;20048;-66
2023/12/25 06:31:10;;;;;;;4.40;1.25;;;;;;;;;;5045644;28;20045;-66
2023/12/25 06:33:36;;;;;;;4.95;1.73;;;;;;;;;;5046090;28;20122;-66
2023/12/25 06:36:02;;;;;;;6.25;1.30;;;;;;;;;;5045202;28;20040;-66
2023/12/25 06:38:28;;;;;;;10.05;2.30;;;;;;;;;;5046561;28;20076;-66
2023/12/25 06:40:54;;;;;;;6.70;1.58;;;;;;;;;;5046043;28;20039;-66
2023/12/25 06:43:20;;;;;;;5.63;1.30;;;;;;;;;;5044995;28;20052;-66
2023/12/25 06:45:46;;;;;;;3.90;0.98;;;;;;;;;;5046214;28;20040;-66
2023/12/25 06:48:12;;;;;;;6.28;2.05;;;;;;;;;;5044415;28;20076;-67
2023/12/25 06:50:39;;;;;;;5.25;1.65;;;;;;;;;;5042620;28;20049;-67
2023/12/25 06:53:05;;;;;;;6.82;1.85;;;;;;;;;;5045613;28;20208;-66
2023/12/25 06:55:32;;;;;;;5.65;1.90;;;;;;;;;;5043199;28;20135;-66
2023/12/25 06:57:58;;;;;;;7.68;1.75;;;;;;;;;;5044533;28;20116;-66
2023/12/25 07:00:24;;;;;;;9.50;2.15;;;;;;;;;;5046764;28;20095;-66
2023/12/25 07:02:50;;;;;;;3.88;1.02;;;;;;;;;;5045911;28;20342;-66
2023/12/25 07:05:16;;;;;;;7.30;2.20;;;;;;;;;;5045902;28;20203;-66
2023/12/25 07:07:42;;;;;;;10.73;2.10;;;;;;;;;;5042815;28;20397;-66
2023/12/25 07:10:09;;;;;;;3.78;1.40;;;;;;;;;;5044388;28;20041;-66
2023/12/25 07:12:35;;;;;;;8.27;1.63;;;;;;;;;;5044234;28;20040;-66
2023/12/25 07:15:01;;;;;;;6.57;1.70;;;;;;;;;;5043964;28;20048;-66
2023/12/25 07:17:27;;;;;;;4.35;1.33;;;;;;;;;;5046470;28;20098;-66
2023/12/25 07:19:53;;;;;;;7.93;2.33;;;;;;;;;;5042988;28;20052;-66
2023/12/25 07:22:19;;;;;;;4.28;1.60;;;;;;;;;;5043418;28;20134;-66
2023/12/25 07:24:45;;;;;;;4.90;1.55;;;;;;;;;;5045008;28;20043;-66
2023/12/25 07:27:11;;;;;;;10.40;1.80;;;;;;;;;;5044782;28;20055;-66
2023/12/25 07:29:37;;;;;;;4.57;1.42;;;;;;;;;;5043896;28;20045;-66
2023/12/25 07:32:03;;;;;;;5.93;1.50;;;;;;;;;;5041971;28;20123;-66
2023/12/25 07:34:29;;;;;;;4.13;1.10;;;;;;;;;;5046443;28;20047;-66
2023/12/25 07:36:55;;;;;;;8.52;1.70;;;;;;;;;;5044078;28;20037;-66
2023/12/25 07:39:21;;;;;;;5.30;1.30;;;;;;;;;;5045535;28;20055;-66
2023/12/25 07:41:47;;;;;;;3.53;1.00;;;;;;;;;;5041036;28;20045;-66
2023/12/25 07:44:14;;;;;;;3.30;1.25;;;;;;;;;;5043803;28;20045;-66
2023/12/25 07:46:40;;;;;;;2.97;1.50;;;;;;;;;;5041966;28;20098;-66
2023/12/25 07:49:06;;;;;;;5.30;1.85;;;;;;;;;;5043264;28;20040;-66
2023/12/25 07:51:32;;;;;;;12.45;1.77;;;;;;;;;;5044457;28;20056;-66
2023/12/25 07:53:58;;;;;;;2.50;1.02;;;;;;;;;;5045927;28;20041;-66
2023/12/25 07:56:24;;;;;;;8.18;1.95;;;;;;;;;;5043159;28;20553;-66
2023/12/25 07:58:50;;;;;;;5.03;1.42;;;;;;;;;;5073261;28;20048;-66
2023/12/25 08:01:19;;;;;;;6.03;1.55;;;;;;;;;;5043345;28;20037;-66
2023/12/25 08:03:45;;;;;;;2.10;1.05;;;;;;;;;;5043998;28;20040;-66
2023/12/25 08:06:11;;;;;;;3.33;1.05;;;;;;;;;;5043392;28;20053;-66
2023/12/25 08:08:37;;;;;;;5.55;1.17;;;;;;;;;;5042457;28;20528;-66
2023/12/25 08:11:03;;;;;;;3.55;1.30;;;;;;;;;;5044808;28;20123;-66
2023/12/25 08:13:29;;;;;;;6.57;1.42;;;;;;;;;;5044804;28;20044;-66
2023/12/25 08:15:55;;;;;;;3.13;1.27;;;;;;;;;;5044862;28;20045;-66
2023/12/25 08:18:21;;;;;;;1.25;0.60;;;;;;;;;;5040762;28;20128;-66
2023/12/25 08:20:47;;;;;;;2.83;0.75;;;;;;;;;;5040611;28;20048;-66
2023/12/25 08:23:13;;;;;;;1.05;0.50;;;;;;;;;;5042825;28;20037;-66
2023/12/25 08:25:40;;;;;;;2.13;0.80;;;;;;;;;;5037672;28;20095;-66
2023/12/25 08:28:06;;;;;;;3.08;1.02;;;;;;;;;;5043746;28;20081;-66
2023/12/25 08:30:32;;;;;;;1.27;0.45;;;;;;;;;;5043432;28;20088;-66
2023/12/25 08:32:59;;;;;;;3.65;1.48;;;;;;;;;;5040810;28;20430;-66
2023/12/25 08:35:24;;;;;;;2.92;0.70;;;;;;;;;;5043228;28;20039;-66
2023/12/25 08:37:51;;;;;;;4.15;0.85;;;;;;;;;;5043079;28;20049;-66
2023/12/25 08:40:17;;;;;;;0.60;0.20;;;;;;;;;;5042784;28;20037;-66
2023/12/25 08:42:43;;;;;;;1.75;0.60;;;;;;;;;;5040960;28;20065;-66
2023/12/25 08:45:09;;;;;;;4.68;0.90;;;;;;;;;;5042620;28;20467;-66
2023/12/25 08:47:35;;;;;;;2.72;0.60;;;;;;;;;;5041423;28;20534;-66
2023/12/25 08:50:01;;;;;;;2.75;0.70;;;;;;;;;;5041722;28;20394;-66
2023/12/25 08:52:28;;;;;;;3.15;0.60;;;;;;;;;;5041997;28;20056;-67
2023/12/25 08:54:54;;;;;;;1.40;0.63;;;;;;;;;;5040207;28;21558;-66
2023/12/25 08:57:20;;;;;;;2.13;0.80;;;;;;;;;;5043467;28;20037;-66
2023/12/25 08:59:49;;;;;;;3.00;0.45;;;;;;;;;;5042475;28;20489;-66
2023/12/25 09:02:15;;;;;;;1.90;0.50;;;;;;;;;;5042656;28;20040;-66
2023/12/25 09:04:41;;;;;;;1.40;0.63;;;;;;;;;;5039573;28;20052;-66
2023/12/25 09:07:07;;;;;;;1.35;0.50;;;;;;;;;;5042601;28;20418;-67
2023/12/25 09:09:33;;;;;;;3.17;0.65;;;;;;;;;;5041680;28;20124;-66
2023/12/25 09:11:59;;;;;;;3.47;0.70;;;;;;;;;;5041430;28;20044;-66
2023/12/25 09:14:25;;;;;;;3.33;1.10;;;;;;;;;;5041867;28;20126;-66
2023/12/25 09:16:51;;;;;;;5.00;0.80;;;;;;;;;;5043430;28;20073;-65
2023/12/25 09:19:17;;;;;;;1.98;0.70;;;;;;;;;;5045354;28;20685;-66
2023/12/25 09:21:43;;;;;;;2.40;0.70;;;;;;;;;;5044849;28;20040;-66
2023/12/25 09:24:09;;;;;;;3.42;0.73;;;;;;;;;;5044210;28;20424;-66
2023/12/25 09:26:35;;;;;;;1.88;0.50;;;;;;;;;;5044985;28;20668;-66
2023/12/25 09:29:01;;;;;;;0.40;0.30;;;;;;;;;;5045279;28;20051;-66
2023/12/25 09:31:27;;;;;;;2.50;0.70;;;;;;;;;;5045770;28;20467;-66
2023/12/25 09:33:53;;;;;;;2.20;0.47;;;;;;;;;;5045184;28;20090;-65
2023/12/25 09:36:19;;;;;;;1.55;0.80;;;;;;;;;;5039727;28;20128;-66
2023/12/25 09:38:45;;;;;;;0.80;0.55;;;;;;;;;;5043805;28;20053;-62
2023/12/25 09:41:11;;;;;;;1.73;0.60;;;;;;;;;;5044835;28;20064;-63
2023/12/25 09:43:41;;;;;;;1.08;0.30;;;;;;;;;;5044288;28;20037;-64
2023/12/25 09:46:10;;;;;;;1.02;0.47;;;;;;;;;;5037916;28;20037;-62
2023/12/25 09:48:37;;;;;;;2.42;0.70;;;;;;;;;;5044976;28;20049;-65
2023/12/25 09:51:04;;;;;;;1.27;0.40;;;;;;;;;;5042134;28;20064;-66
2023/12/25 09:53:30;;;;;;;1.65;0.70;;;;;;;;;;5036630;28;20050;-65
2023/12/25 09:55:57;;;;;;;0.95;0.52;;;;;;;;;;5039865;28;20132;-65
2023/12/25 09:58:23;;;;;;;1.35;0.60;;;;;;;;;;5041355;28;20041;-64
2023/12/25 10:00:49;;;;;;;1.70;0.73;;;;;;;;;;5036929;28;20044;-61
2023/12/25 10:03:16;;;;;;;0.60;0.40;;;;;;;;;;5040395;28;20033;-67
2023/12/25 10:05:42;;;;;;;0.82;0.43;;;;;;;;;;5042437;28;20113;-67
2023/12/25 10:08:08;;;;;;;0.60;0.40;;;;;;;;;;5038392;28;20761;-66
2023/12/25 10:10:36;;;;;;;2.13;0.93;;;;;;;;;;5040284;28;20059;-66
2023/12/25 10:13:02;;;;;;;1.42;0.43;;;;;;;;;;5041145;28;20041;-65
2023/12/25 10:15:28;;;;;;;1.77;0.80;;;;;;;;;;5039800;28;20106;-64
2023/12/25 10:18:04;;;;;;;0.77;0.40;;;;;;;;;;5038319;28;20489;-66
2023/12/25 10:20:30;;;;;;;0.80;0.63;;;;;;;;;;5036287;28;20041;-66
2023/12/25 10:22:57;;;;;;;2.72;0.70;;;;;;;;;;5040763;28;20044;-66
2023/12/25 10:25:28;;;;;;;4.22;1.02;;;;;;;;;;5037787;28;20048;-65
2023/12/25 10:27:54;;;;;;;1.08;0.47;;;;;;;;;;5045580;28;20057;-66
2023/12/25 10:30:21;;;;;;;3.70;1.00;;;;;;;;;;5042888;28;20048;-65
2023/12/25 10:32:47;;;;;;;2.22;0.95;;;;;;;;;;5040785;28;20045;-65
2023/12/25 10:35:14;;;;;;;3.60;1.02;;;;;;;;;;5044737;28;20048;-65
2023/12/25 10:37:41;;;;;;;3.60;0.80;;;;;;;;;;5045095;28;20138;-65
2023/12/25 10:40:27;;;;;;;7.70;1.02;;;;;;;;;;5039984;28;20040;-65
2023/12/25 10:42:54;;;;;;;1.33;0.60;;;;;;;;;;5042660;28;21226;-65
2023/12/25 10:45:27;;;;;;;1.05;0.55;;;;;;;;;;5045146;28;20473;-65
2023/12/25 10:47:54;;;;;;;1.10;0.50;;;;;;;;;;5043815;28;20063;-65
2023/12/25 10:50:27;;;;;;;0.57;0.40;;;;;;;;;;5037591;28;20064;-64
2023/12/25 10:52:54;;;;;;;3.83;0.85;;;;;;;;;;5037952;28;20090;-66
2023/12/25 10:55:36;;;;;;;2.50;0.73;;;;;;;;;;5040774;28;20041;-66
2023/12/25 10:58:03;;;;;;;2.15;0.80;;;;;;;;;;5045016;28;20538;-65
2023/12/25 11:00:30;;;;;;;5.40;1.35;;;;;;;;;;5039221;28;20103;-67
2023/12/25 11:02:57;;;;;;;3.28;1.25;;;;;;;;;;5042807;28;20072;-65
2023/12/25 11:05:24;;;;;;;3.95;0.93;;;;;;;;;;5044031;28;20051;-65
2023/12/25 11:07:51;;;;;;;3.00;1.00;;;;;;;;;;5043317;28;20037;-67
2023/12/25 11:10:18;;;;;;;3.55;0.88;;;;;;;;;;5042526;28;20584;-66
2023/12/25 11:12:44;;;;;;;2.80;0.77;;;;;;;;;;5037488;28;20040;-67
2023/12/25 11:15:11;;;;;;;4.45;1.00;;;;;;;;;;5045354;28;20041;-65
2023/12/25 11:17:38;;;;;;;4.35;1.73;;;;;;;;;;5041278;28;20037;-65
2023/12/25 11:20:09;;;;;;;0.98;0.60;;;;;;;;;;5043149;28;20044;-66
2023/12/25 11:22:36;;;;;;;3.33;0.90;;;;;;;;;;5042685;28;20113;-65
2023/12/25 11:25:03;;;;;;;3.55;1.33;;;;;;;;;;5042701;28;20098;-66
2023/12/25 11:27:30;;;;;;;3.03;0.95;;;;;;;;;;5040682;28;20045;-65
2023/12/25 11:30:02;;;;;;;4.03;1.30;;;;;;;;;;5039894;28;20045;-66
2023/12/25 11:32:30;;;;;;;3.25;1.08;;;;;;;;;;5042169;28;20092;-67
2023/12/25 11:34:57;;;;;;;6.40;2.20;;;;;;;;;;5040117;28;20486;-66
2023/12/25 11:37:24;;;;;;;4.60;1.75;;;;;;;;;;5038460;28;20431;-65
2023/12/25 11:39:54;;;;;;;4.63;1.35;;;;;;;;;;5044100;28;20056;-67
2023/12/25 11:42:20;;;;;;;4.45;1.48;;;;;;;;;;5040946;28;21036;-65
2023/12/25 11:44:48;;;;;;;4.25;1.23;;;;;;;;;;5048453;28;20045;-66
2023/12/25 11:47:14;;;;;;;4.25;1.08;;;;;;;;;;5043992;28;20390;-66
2023/12/25 11:49:40;;;;;;;4.88;1.10;;;;;;;;;;5045237;28;20505;-66
2023/12/25 11:52:06;;;;;;;2.67;1.10;;;;;;;;;;5046071;28;20043;-65
2023/12/25 11:54:36;;;;;;;3.03;1.27;;;;;;;;;;5045011;28;20048;-66
2023/12/25 11:57:17;;;;;;;3.65;0.95;;;;;;;;;;5045199;28;20110;-67
2023/12/25 11:59:46;;;;;;;2.45;0.73;;;;;;;;;;5045164;28;20060;-66
2023/12/25 12:02:13;;;;;;;2.38;1.05;;;;;;;;;;5045839;28;20067;-65
2023/12/25 12:04:39;;;;;;;1.60;0.57;;;;;;;;;;5045204;28;20048;-65
2023/12/25 12:07:05;;;;;;;1.08;0.70;;;;;;;;;;5043935;28;20044;-65
2023/12/25 12:09:31;;;;;;;2.85;0.90;;;;;;;;;;5043228;28;20146;-65
2023/12/25 12:11:57;;;;;;;2.85;1.25;;;;;;;;;;5045003;28;20036;-65
2023/12/25 12:14:24;;;;;;;1.20;0.60;;;;;;;;;;5045542;28;20036;-65
2023/12/25 12:16:51;;;;;;;2.10;0.90;;;;;;;;;;5045094;28;20060;-66
2023/12/25 12:19:18;;;;;;;6.00;1.80;;;;;;;;;;5043129;28;20550;-65
2023/12/25 12:21:44;;;;;;;1.65;1.02;;;;;;;;;;5039021;28;20500;-66
2023/12/25 12:24:23;;;;;;;1.75;0.77;;;;;;;;;;5044489;28;20041;-66
2023/12/25 12:26:49;;;;;;;1.92;0.93;;;;;;;;;;5038212;28;20037;-66
2023/12/25 12:29:15;;;;;;;3.08;1.25;;;;;;;;;;5045256;28;20103;-66
2023/12/25 12:31:42;;;;;;;6.45;1.70;;;;;;;;;;5043578;28;20760;-66
2023/12/25 12:34:08;;;;;;;3.15;1.02;;;;;;;;;;5042455;28;20033;-67
2023/12/25 12:36:34;;;;;;;2.95;1.30;;;;;;;;;;5043706;28;20048;-65
2023/12/25 12:39:00;;;;;;;3.53;0.82;;;;;;;;;;5041867;28;20396;-65
2023/12/25 12:41:26;;;;;;;2.47;1.02;;;;;;;;;;5038690;28;20045;-65
2023/12/25 12:44:02;;;;;;;5.28;1.55;;;;;;;;;;5043743;28;20470;-66
2023/12/25 12:46:29;;;;;;;3.10;1.35;;;;;;;;;;5042707;28;20045;-66
2023/12/25 12:48:55;;;;;;;3.72;1.08;;;;;;;;;;5038398;28;20037;-66
2023/12/25 12:51:23;;;;;;;2.92;1.02;;;;;;;;;;5038897;28;20477;-67
2023/12/25 12:53:49;;;;;;;2.42;1.17;;;;;;;;;;5038726;28;20496;-66
2023/12/25 12:56:15;;;;;;;3.35;1.30;;;;;;;;;;5044641;28;20057;-67
2023/12/25 12:58:42;;;;;;;3.55;0.77;;;;;;;;;;5043701;28;20045;-66
2023/12/25 13:01:08;;;;;;;3.45;1.10;;;;;;;;;;5040067;28;20148;-66
2023/12/25 13:03:34;;;;;;;2.67;0.93;;;;;;;;;;5042695;28;20048;-66
2023/12/25 13:06:01;;;;;;;2.58;1.10;;;;;;;;;;5040236;28;20653;-66
2023/12/25 13:08:27;;;;;;;4.20;1.20;;;;;;;;;;5038404;28;20125;-66
2023/12/25 13:10:53;;;;;;;5.05;1.20;;;;;;;;;;5044511;28;20095;-66
2023/12/25 13:13:20;;;;;;;2.47;1.10;;;;;;;;;;5044072;28;20048;-66
2023/12/25 13:15:46;;;;;;;1.75;0.95;;;;;;;;;;5044153;28;20064;-66
2023/12/25 13:18:12;;;;;;;3.58;1.35;;;;;;;;;;5043072;28;20085;-66
2023/12/25 13:20:38;;;;;;;2.08;1.13;;;;;;;;;;5041872;28;20075;-66
2023/12/25 13:23:04;;;;;;;1.85;1.23;;;;;;;;;;5043953;28;20036;-66
2023/12/25 13:25:30;;;;;;;1.05;0.90;;;;;;;;;;5044412;28;20521;-66
2023/12/25 13:27:56;;;;;;;1.10;1.00;;;;;;;;;;5033621;28;20040;-66
2023/12/25 13:30:22;;;;;;;1.65;1.17;;;;;;;;;;5042885;28;20044;-66
2023/12/25 13:32:48;;;;;;;1.30;1.00;;;;;;;;;;5042504;28;20051;-66
2023/12/25 13:35:14;;;;;;;1.17;1.00;;;;;;;;;;5043963;28;20785;-66
2023/12/25 13:37:40;;;;;;;1.08;0.60;;;;;;;;;;5044225;28;20044;-66
2023/12/25 13:40:06;;;;;;;1.02;0.50;;;;;;;;;;5040017;28;20045;-66
2023/12/25 13:42:33;;;;;;;2.80;0.93;;;;;;;;;;5040035;28;20041;-66
2023/12/25 13:44:59;;;;;;;1.15;0.70;;;;;;;;;;5042691;28;20037;-66
2023/12/25 13:47:25;;;;;;;2.55;1.00;;;;;;;;;;5036586;28;20060;-66
2023/12/25 13:49:52;;;;;;;1.15;0.93;;;;;;;;;;5034822;28;20062;-67
2023/12/25 13:52:18;;;;;;;1.95;0.98;;;;;;;;;;5042816;28;20743;-66
2023/12/25 13:54:44;;;;;;;2.38;0.88;;;;;;;;;;5042952;28;20522;-66
2023/12/25 13:57:10;;;;;;;1.63;0.98;;;;;;;;;;5042295;28;20455;-66
2023/12/25 13:59:36;;;;;;;2.00;0.98;;;;;;;;;;5045397;28;20614;-66
2023/12/25 14:02:02;;;;;;;3.20;1.13;;;;;;;;;;5047825;28;20129;-66
2023/12/25 14:04:28;;;;;;;4.38;1.33;;;;;;;;;;5045020;28;20044;-66
2023/12/25 14:06:54;;;;;;;6.57;1.83;;;;;;;;;;5046210;28;20124;-66
2023/12/25 14:09:20;;;;;;;5.00;1.52;;;;;;;;;;5046621;28;20053;-66
2023/12/25 14:11:46;;;;;;;2.75;1.42;;;;;;;;;;5046335;28;20033;-66
2023/12/25 14:14:12;;;;;;;3.70;1.60;;;;;;;;;;5043616;28;20078;-66
2023/12/25 14:16:38;;;;;;;3.30;1.83;;;;;;;;;;5045586;28;20124;-66
2023/12/25 14:19:04;;;;;;;3.67;1.90;;;;;;;;;;5046372;28;20527;-62
2023/12/25 14:21:31;;;;;;;5.63;2.10;;;;;;;;;;5047338;28;20041;-65
2023/12/25 14:23:57;;;;;;;3.40;1.50;;;;;;;;;;5045564;28;20037;-65
2023/12/25 14:26:23;;;;;;;7.32;2.42;;;;;;;;;;5041580;28;20052;-65
2023/12/25 14:28:49;;;;;;;4.68;2.00;;;;;;;;;;5039386;28;20041;-65
2023/12/25 14:31:16;;;;;;;7.30;1.73;;;;;;;;;;5044676;28;20088;-65
2023/12/25 14:33:43;;;;;;;4.85;2.13;;;;;;;;;;5047622;28;20063;-65
2023/12/25 14:36:12;;;;;;;6.93;2.40;;;;;;;;;;5044362;28;20094;-65